Republica Dominicana

vuelos de bajo nivel

           VUELOS DE BAJO NIVEL DESDE SUPERFICIE HASTA 24,000 PIES.

VALIDO DESDE 221200Z ...…………………….…………HASTA 230000Z

 

  SALIDA  Y  PUESTA  DEL  SOL  07:14/18:27

SANTO DOMINGO FIR...PORT-AU-PRINCE FIR HISPANIOLA...SCT-BKN020 SCT-BKN060 TOP FL220. SCT SHRA. OTLK...VFR SHRA. WTRS...SCT025 SCT060. ISOL SHRA. OTLK...VFR SHRA.

 

5,000 FT.

10,000 FT.

18,000 FT.

24,000 FT.

MDSD

2220KT+15ºC

2420KT+07ºC

2730KT+08ºC

3035KT-18ºC

MTPP

2215KT+13ºC

2430KT+07ºC

2745KT+07ºC

3135KT-17ºC

TJSJ

2115KT+15ºC

2415KT+09ºC

2425KT+08ºC

2755KT-19ºC

 
TAF MDPP
221000Z 2212/2312 06010KT 9999 FEW018 SCT300 PROB40 2300/2306 6000 -RA BKN018=

TAF MDST 221000Z 2212/2312 14010KT 9999 SCT022 TEMPO 2212/2214 4000 BR BKN014 BECMG 2212/2214 00000KT=

TAF MDPC 221000Z 2212/2312 17010KT 9999 FEW020 BKN300 PROB30 2213/2218 8000 –RA BKN018 BKN300=

TAF MDBH 221000Z 2212/2312 27004KT 9999 FEW020 SCT080 BKN300 BECMG 2215/2217 13014KT=

TAF MDJB 221000Z 2212/2312 00000KT 9999 FEW018 ST300 BECMG 2215/2217 18008KT SCT020 SCT300=

TAF MDSD 221000Z 2212/2312 05006KT 9999 FEW018 SCT300 BECMG 2215/2217 16010KT SCT020 SCT300=

TAF MDLR 221000Z 2212/2312 00000KT 9999 SCT018 SCT300 BECMG 2215/2217 16010KT=

TAF MDCY 221000Z 2212/2312 00000KT 9999 FEW019 SCT300 BECMG 2214/2216 16010KT=

TAF KMIA 220901Z 2209/2312 32015G25KT P6SM FEW250 FM230000 04010KT P6SM FEW035 SCT050 FM230600 06005KT P6SM FEW025 SCT050

TAF KJFK 220815Z 2208/2312 VRB03KT P6SM FEW250 FM221600 25005KT P6SM SKC FM230000 VRB03KT P6SM SKC

TAF TJSJ 221014Z 2210/2306 16005KT P6SM VCSH FEW025 SCT060 FM221400 14009KT P6SM VCSH FEW028 SCT040 FM222000 10008KT P6SM -SHRA SCT030 SCT050 FM230300 13010KT P6SM SHRA SCT030 BKN050

TAF MKJP 220515Z 2206/2306 35006KT 9999 SCT020 BECMG 2216/2218 15010KT PROB30 TEMPO 2218/2223 SHRA BKN018 SCT034 BECMG 2302/2304 36005KT

TAF MUHA 220500Z 2206/2306 36010KT 9000 BKN030 BECMG 2221/2223 02007KT SCT030 BECMG 2304/2306 06005KT FEW030

TAF MUGM 2207/2307 35008KT 9999 FEW030 BKN090 BKN250 QNH2985INS BECMG 2214/2216 35015G22KT 9999 SCT030 BKN250 QNH2981INS BECMG 2222/2300 34010KT 9999 SCT030 SCT250 QNH2979INS BECMG 2302/2304 34006KT 9999 SCT040 QNH2983INS T22/2211Z T30/2218Z FN00213

TAF TNCC 220515Z 2206/2306 11006KT 9999 SCT018 BECMG 2212/2214 10013KTPREPARADO

PREPARADO POR :HATY ARISMENDY MOTA ACOSTA 22-01-2020




Tamaño letra

Contraste

Otros